Latest Coastal Weather Observations for Cocos Island

IDW60701

Issued at 4:42 am WST Sunday 19 April 2015 (issued every 10 minutes, with the page automatically refreshed every 10 minutes)

About coastal observations | Map of coastal stations | Coastal observations for WA | Marine services | Other Formats
Station Details ID: 200284 Name: COCOS ISLAND AIRPORT Lat: -12.19 Lon: 96.83 Height: 3.0 m
Data from the previous 72 hours. | See also: Recent months at Cocos Island
Date/Time
WST
Temp

°C
Wind Pressure Rain
since 9am
mm
Weather Cloud Vis
km
Sea
Height
m
Swell
Dir
 
Speed
knots
Gust
knots
hPa Trend Height
m
Period
s
Dir
19/04:30am 26.6 NW 6 9 1008.0 - 2.0 - - 10 - - - -
19/04:00am 26.8 NW 8 9 1008.2 - 2.0 - - 10 - - - -
19/03:30am 26.6 NW 6 8 1008.5 - 2.0 - - 10 - - - -
19/03:00am 26.8 NW 7 8 1008.9 - 2.0 - - 10 - - - -
19/02:30am 27.2 NW 7 9 1009.2 - 2.0 - - 10 - - - -
19/02:00am 26.8 NW 7 9 1009.4 - 2.0 - - 10 - - - -
19/01:30am 27.1 WNW 7 9 1009.6 - 2.0 - - 10 - - - -
19/01:00am 27.3 NW 8 10 1009.7 - 2.0 - - 10 - - - -
19/12:30am 27.3 NW 7 9 1009.7 - 2.0 - Partly cloudy 10 - - - -
19/12:00am 27.4 WNW 9 11 1009.6 - 2.0 - - 10 - - - -
 
Date/Time
WST
Temp

°C
Wind Pressure Rain
since 9am
mm
Weather Cloud Vis
km
Sea
Height
m
Swell
Dir
 
Speed
knots
Gust
knots
hPa Trend Height
m
Period
s
Dir
18/11:30pm 27.4 WNW 8 10 1009.6 - 2.0 - - 10 - - - -
18/11:00pm 27.5 WNW 8 11 1009.5 - 2.0 - - 10 - - - -
18/10:30pm 27.3 NW 8 11 1009.6 - 2.0 - - 10 - - - -
18/10:00pm 27.1 NW 7 9 1009.1 - 2.0 - - 10 - - - -
18/09:30pm 27.0 NW 8 11 1009.0 - 2.0 - - 10 - - - -
18/09:00pm 27.0 NW 7 10 1008.4 - 2.0 - Partly cloudy 10 - - - -
18/08:40pm 26.4 NW 5 7 1008.2 - 2.0 - - 10 - - - -
18/08:30pm 26.1 NW 6 9 1008.2 - 2.0 - - 6 - - - -
18/08:17pm 26.5 W 14 17 1008.1 - 1.2 - Partly cloudy 6 - - - -
18/08:00pm 27.7 NW 10 13 1007.8 - 0.0 - Partly cloudy 10 - - - -
18/07:30pm 27.6 NW 10 13 1007.5 - 0.0 - Partly cloudy 10 - - - -
18/07:00pm 27.8 NNW 10 13 1007.2 - 0.0 - Partly cloudy 10 - - - -
18/06:30pm 28.8 NW 12 15 1007.2 - 0.0 - Partly cloudy 10 - - - -
18/06:00pm 29.1 NW 12 17 1006.9 - 0.0 - Mostly clear 10 - - - -
18/05:30pm 29.4 NW 13 18 1006.5 - 0.0 - Mostly clear 10 - - - -
18/05:00pm 29.0 NNW 13 16 1006.6 - 0.0 Fine Mostly cloudy 20 - - - -
18/04:30pm 29.0 NNW 13 16 1006.6 - 0.0 - Partly cloudy 10 - - - -
18/04:00pm 29.3 NW 12 16 1006.7 - 0.0 - Mostly clear 10 - - - -
18/03:30pm 30.1 NNW 14 17 1006.8 - 0.0 - Partly cloudy 10 - - - -
18/03:00pm 30.6 NW 14 17 1007.1 - 0.0 - Mostly clear 10 - - - -
18/02:30pm 30.5 NW 13 16 1007.6 - 0.0 - Partly cloudy 10 - - - -
18/02:00pm 30.6 NNW 13 16 1007.9 - 0.0 Fine Partly cloudy 20 - - - -
18/01:30pm 30.2 NNW 15 20 1008.3 - 0.0 - Mostly clear 10 - - - -
18/01:00pm 29.9 NW 13 18 1008.8 - 0.0 - Mostly clear 10 - - - -
18/12:30pm 29.1 WNW 13 19 1009.0 - 0.0 Showers Mostly clear 10 - - - -
18/12:00pm 30.8 NW 14 18 1009.4 - 0.0 - Partly cloudy 10 - - - -
18/11:30am 29.9 NW 13 17 1009.5 - 0.0 - Mostly clear 10 - - - -
18/11:00am 29.5 WNW 13 17 1009.5 - 2.0 Distant precip. Mostly clear 20 - - - -
18/10:30am 29.3 WNW 13 19 1009.3 - 1.8 - Mostly clear 10 - - - -
18/10:00am 29.2 NW 14 18 1008.7 - 1.8 - Mostly clear 10 - - - -
18/09:30am 28.7 NW 14 17 1008.4 - 1.8 - - 10 - - - -
18/09:00am 28.0 NW 13 17 1008.2 - 1.8 - Mostly clear 10 - - - -
18/08:30am 27.2 NW 11 17 1008.0 - 1.8 - Mostly clear 10 - - - -
18/08:27am 27.0 NW 10 17 1008.0 - 1.8 - Mostly clear 10 - - - -
18/08:05am 26.8 NW 11 16 1007.7 - 1.4 Showers Partly cloudy 5 - - - -
18/08:00am 27.2 NW 11 16 1007.7 - 1.0 Showers Partly cloudy 20 - - - -
18/07:30am 26.9 NW 11 14 1007.3 - 1.0 - Mostly clear 10 - - - -
18/07:00am 26.8 NW 11 15 1006.9 - 1.0 - Mostly clear 10 - - - -
18/06:30am 26.4 NW 13 19 1006.5 - 1.0 - Partly cloudy 9 - - - -
18/06:00am 27.1 NW 12 16 1006.2 - 1.0 - Partly cloudy 10 - - - -
18/05:30am 26.9 NW 11 15 1006.2 - 1.0 - - 10 - - - -
18/05:00am 26.4 NW 10 13 1006.4 - 1.0 - Partly cloudy 10 - - - -
18/04:30am 27.0 NW 11 15 1006.5 - 0.8 - - 10 - - - -
18/04:00am 26.9 NW 11 14 1006.8 - 0.8 - Partly cloudy 10 - - - -
18/03:30am 26.7 NNW 11 16 1007.3 - 0.8 - Partly cloudy 10 - - - -
18/03:00am 26.8 NNW 9 12 1007.5 - 0.8 - Partly cloudy 10 - - - -
18/02:31am 26.6 NW 10 14 1007.8 - 0.8 - - 10 - - - -
18/02:30am 26.6 NW 10 14 1007.8 - 0.8 - - 10 - - - -
18/02:15am 26.6 NNW 11 17 1008.2 - 0.8 - Partly cloudy 6 - - - -
18/02:00am 27.0 NNW 11 14 1008.3 - 0.2 - Mostly cloudy 10 - - - -
18/01:30am 27.3 NNW 9 13 1008.7 - 0.0 - Partly cloudy 10 - - - -
18/01:00am 27.2 NW 8 11 1008.8 - 0.0 - - 10 - - - -
18/12:30am 27.3 NNW 8 11 1009.2 - 0.0 - - 10 - - - -
18/12:00am 27.3 NNW 11 15 1009.2 - 0.0 - Partly cloudy 10 - - - -
 
Date/Time
WST
Temp

°C
Wind Pressure Rain
since 9am
mm
Weather Cloud Vis
km
Sea
Height
m
Swell
Dir
 
Speed
knots
Gust
knots
hPa Trend Height
m
Period
s
Dir
17/11:30pm 27.8 NW 11 14 1009.1 - 0.0 - Partly cloudy 10 - - - -
17/11:00pm 27.7 NW 9 11 1008.9 - 0.0 - Mostly clear 10 - - - -
17/10:30pm 27.7 NW 10 13 1008.7 - 0.0 - Partly cloudy 10 - - - -
17/10:00pm 27.8 NW 9 12 1008.6 - 0.0 - Partly cloudy 10 - - - -
17/09:30pm 27.8 NW 10 13 1008.2 - 0.0 - Partly cloudy 10 - - - -
17/09:00pm 28.1 WNW 11 14 1007.8 - 0.0 - Partly cloudy 10 - - - -
17/08:30pm 28.0 WNW 10 12 1007.4 - 0.0 - Partly cloudy 10 - - - -
17/08:00pm 28.0 NW 10 13 1007.2 - 0.0 - Mostly clear 10 - - - -
17/07:30pm 28.2 NW 11 14 1007.0 - 0.0 - - 10 - - - -
17/07:00pm 28.3 NW 10 14 1006.8 - 0.0 - - 10 - - - -
17/06:30pm 28.7 WNW 11 15 1006.5 - 0.0 - - 10 - - - -
17/06:00pm 28.9 NW 11 14 1006.4 - 0.0 - Mostly clear 10 - - - -
17/05:30pm 29.6 NW 11 15 1006.4 - 0.0 - Mostly clear 10 - - - -
17/05:00pm 30.2 NW 12 16 1006.3 - 0.0 Fine Mostly cloudy 30 - - - -
17/04:30pm 30.3 WNW 12 14 1006.3 - 0.0 - Mostly clear 10 - - - -
17/04:00pm 29.9 WNW 11 15 1006.6 - 0.0 - Mostly clear 10 - - - -
17/03:30pm 29.7 WNW 11 14 1006.9 - 0.0 - Mostly clear 10 - - - -
17/03:00pm 30.2 WNW 11 15 1007.2 - 0.0 - Mostly clear 10 - - - -
17/02:30pm 30.3 WNW 11 15 1007.4 - 0.0 - Mostly clear 10 - - - -
17/02:00pm 30.6 WNW 11 14 1007.8 - 0.0 Fine Mostly cloudy 30 - - - -
17/01:30pm 29.6 NW 11 14 1008.2 - 0.0 - Mostly clear 10 - - - -
17/01:00pm 29.6 NW 10 13 1008.6 - 0.0 - Mostly clear 10 - - - -
17/12:30pm 31.1 WNW 10 13 1008.9 - 0.0 - Mostly clear 10 - - - -
17/12:00pm 29.9 NW 11 14 1009.1 - 0.0 - Mostly clear 10 - - - -
17/11:30am 29.9 WNW 9 13 1009.2 - 0.0 - Mostly clear 10 - - - -
17/11:00am 29.5 NW 9 12 1009.3 - 1.2 Fine Partly cloudy 30 - - - -
17/10:30am 29.5 NW 9 12 1009.2 - 1.2 - Mostly clear 10 - - - -
17/10:00am 29.1 NNW 9 11 1009.1 - 1.0 - Mostly clear 10 - - - -
17/09:30am 28.9 NW 8 9 1009.2 - 1.0 - Mostly clear 10 - - - -
17/09:00am 28.6 NW 7 9 1009.1 - 1.0 - Mostly clear 10 - - - -
17/08:30am 27.1 NW 6 7 1008.9 - 1.0 - Mostly clear 10 - - - -
17/08:00am 26.7 NW 5 6 1008.8 - 1.0 Fine Partly cloudy 25 - - - -
17/07:30am 26.9 NW 7 8 1008.3 - 1.0 - Mostly clear 10 - - - -
17/07:00am 26.8 WNW 6 7 1007.9 - 1.0 - Mostly clear 10 - - - -
17/06:30am 26.6 NW 5 7 1007.8 - 1.0 - Partly cloudy 10 - - - -
17/06:00am 26.3 NW 5 6 1007.7 - 1.0 - Partly cloudy 10 - - - -
17/05:30am 26.6 NW 4 5 1007.7 - 1.0 - Partly cloudy 10 - - - -
17/05:00am 26.7 WNW 5 6 1007.7 - 1.0 - - 8 - - - -
17/04:30am 26.5 WNW 5 6 1008.0 - 1.0 - - 8 - - - -
17/04:00am 26.7 WNW 4 5 1008.4 - 1.0 - - 8 - - - -
17/03:30am 27.3 W 6 8 1008.6 - 1.0 - - 10 - - - -
17/03:00am 27.4 W 7 8 1008.8 - 1.0 - - 10 - - - -
17/02:30am 27.3 W 6 9 1009.1 - 1.0 - - 9 - - - -
17/02:00am 27.2 WNW 5 7 1009.6 - 1.0 - - 9 - - - -
17/01:30am 27.2 W 5 6 1009.9 - 1.0 - Partly cloudy 10 - - - -
17/01:00am 27.4 W 5 6 1009.9 - 1.0 - Partly cloudy 10 - - - -
17/12:30am 27.2 W 4 6 1009.9 - 1.0 - Partly cloudy 8 - - - -
17/12:00am 27.5 W 6 8 1009.9 - 1.0 - - 10 - - - -
 
Date/Time
WST
Temp

°C
Wind Pressure Rain
since 9am
mm
Weather Cloud Vis
km
Sea
Height
m
Swell
Dir
 
Speed
knots
Gust
knots
hPa Trend Height
m
Period
s
Dir
16/11:30pm 27.7 W 4 5 1010.0 - 1.0 - Partly cloudy 10 - - - -
16/11:00pm 27.8 WSW 6 7 1009.9 - 1.0 - Mostly clear 10 - - - -
16/10:30pm 27.9 SW 5 6 1009.9 - 1.0 - Partly cloudy 10 - - - -
16/10:00pm 27.8 WSW 6 8 1009.9 - 1.0 - Partly cloudy 10 - - - -
16/09:30pm 27.7 WSW 6 7 1009.5 - 1.0 - - 10 - - - -
16/09:00pm 27.7 SW 7 8 1009.2 - 1.0 - - 10 - - - -
16/08:30pm 27.7 WSW 7 9 1008.9 - 1.0 - Partly cloudy 10 - - - -
16/08:00pm 27.8 SW 7 9 1008.5 - 1.0 - Partly cloudy 10 - - - -
16/07:30pm 27.9 WSW 9 11 1008.3 - 1.0 - Partly cloudy 10 - - - -
16/07:00pm 28.3 W 10 13 1008.0 - 1.0 - Cloudy 10 - - - -
16/06:30pm 28.4 W 12 15 1007.8 - 1.0 - Mostly clear 10 - - - -
16/06:00pm 28.5 W 13 16 1007.6 - 1.0 - Mostly clear 10 - - - -
16/05:30pm 29.0 W 13 17 1007.4 - 1.0 - Mostly clear 10 - - - -
16/05:11pm 29.0 W 13 17 1007.3 - 1.0 - Mostly clear 10 - - - -
16/05:00pm 28.3 W 11 16 1007.3 - 1.0 Showers Cloudy 15 - - - -
16/04:46pm 28.5 W 13 19 1007.4 - 0.8 Showers Partly cloudy 4 - - - -
16/04:30pm 30.1 W 14 17 1007.3 - 0.8 - Mostly clear 10 - - - -
16/04:00pm 29.8 WNW 13 16 1007.5 - 0.8 - Partly cloudy 10 - - - -
16/03:30pm 29.1 WNW 13 16 1007.6 - 0.8 - Mostly clear 10 - - - -
16/03:00pm 29.5 WNW 12 16 1007.7 - 0.8 Showers Mostly clear 10 - - - -
16/02:30pm 30.3 WNW 14 19 1008.0 - 0.8 Showers Partly cloudy 10 - - - -
16/02:00pm 29.1 WNW 13 18 1008.4 - 0.6 Recent precip. Mostly cloudy 18 - - - -
16/01:56pm 28.8 WNW 14 18 1008.5 - 0.6 Showers Partly cloudy 10 - - - -
16/01:30pm 29.3 WNW 13 18 1008.8 - 0.6 Showers Partly cloudy 6 - - - -
16/01:00pm 31.0 WNW 13 16 1009.2 - 0.6 Showers Partly cloudy 10 - - - -
16/12:30pm 28.9 WNW 13 18 1009.6 - 0.6 Showers Partly cloudy 10 - - - -
16/12:00pm 28.4 NW 16 23 1010.0 - 0.6 Showers Partly cloudy 7 - - - -
16/11:30am 29.7 NW 15 20 1010.1 - 0.0 Showers Partly cloudy 10 - - - -
16/11:00am 29.0 NW 14 18 1009.9 - 12.0 Fine Mostly cloudy 18 - - - -
16/10:30am 28.8 NW 14 19 1009.6 - 12.0 - Mostly clear 10 - - - -
16/10:00am 29.7 NW 14 19 1009.3 - 12.0 - Partly cloudy 10 - - - -
16/09:30am 27.1 NNW 15 20 1009.2 - 12.0 Showers Partly cloudy 9 - - - -
16/09:00am 28.6 NNW 13 17 1008.8 - 12.0 - Partly cloudy 10 - - - -
16/08:30am 27.8 NW 14 17 1008.5 - 12.0 - Partly cloudy 10 - - - -
16/08:00am 27.4 NW 12 17 1008.2 - 12.0 Fine Mostly cloudy 18 - - - -
16/07:30am 27.4 NW 13 18 1007.8 - 12.0 - Partly cloudy 10 - - - -
16/07:00am 27.5 NW 15 19 1007.6 - 12.0 - Partly cloudy 10 - - - -
16/06:30am 27.3 NNW 11 16 1007.4 - 12.0 - Partly cloudy 10 - - - -

Other Formats:

Comma delimited format used in spreadsheet applications
http://www.bom.gov.au/fwo/IDW60701/IDW60701.96996.axf

JavaScript Object Notation format (JSON) in row-major order
http://www.bom.gov.au/fwo/IDW60701/IDW60701.96996.json